createdAt,value
2022-10-05T00:03:23.560Z,1.30
2022-10-05T00:06:37.475Z,1.50
2022-10-05T00:12:51.523Z,1.70
2022-10-05T00:16:01.549Z,1.90
2022-10-05T00:19:42.391Z,1.60
2022-10-05T00:22:48.488Z,2.00
2022-10-05T00:25:53.509Z,1.70
2022-10-05T00:36:57.364Z,1.30
2022-10-05T00:40:32.036Z,1.40
2022-10-05T00:43:57.459Z,1.60
2022-10-05T00:47:23.497Z,2.00
2022-10-05T00:57:57.268Z,1.50
2022-10-05T01:04:39.532Z,1.10
2022-10-05T01:07:48.508Z,1.00
2022-10-05T01:10:47.550Z,1.00
2022-10-05T01:17:19.526Z,1.00
2022-10-05T01:23:58.568Z,1.40
2022-10-05T01:27:21.014Z,1.60
2022-10-05T01:30:27.497Z,1.30
2022-10-05T01:37:03.575Z,1.90
2022-10-05T01:40:12.605Z,1.50
2022-10-05T02:06:18.616Z,1.50
2022-10-05T02:09:33.585Z,1.20
2022-10-05T02:12:53.485Z,1.10
2022-10-05T02:16:18.399Z,1.30
2022-10-05T02:23:24.805Z,1.50
2022-10-05T02:26:40.568Z,1.80
2022-10-05T02:33:39.507Z,1.40
2022-10-05T02:36:52.520Z,1.30
2022-10-05T02:40:02.472Z,1.10
2022-10-05T02:43:28.131Z,1.20
2022-10-05T02:50:00.909Z,1.40
2022-10-05T02:53:08.462Z,1.50
2022-10-05T02:56:25.578Z,1.50
2022-10-05T02:59:48.904Z,1.40
2022-10-05T03:03:06.484Z,1.50
2022-10-05T03:06:09.525Z,1.50
2022-10-05T03:09:22.507Z,1.30
2022-10-05T03:13:12.462Z,1.80
2022-10-05T03:16:33.182Z,2.00
2022-10-05T03:19:58.052Z,1.50
2022-10-05T03:23:17.535Z,1.60
2022-10-05T03:29:50.833Z,1.30
2022-10-05T03:33:01.021Z,1.20
2022-10-05T03:36:11.527Z,1.30
2022-10-05T03:39:24.579Z,1.40
2022-10-05T03:46:00.019Z,1.50
2022-10-05T03:49:22.034Z,1.80
2022-10-05T03:52:36.533Z,1.70
2022-10-05T03:55:48.483Z,2.20
2022-10-05T03:58:58.569Z,2.10
2022-10-05T04:02:07.757Z,1.80
2022-10-05T04:05:16.482Z,2.40
2022-10-05T04:08:34.943Z,1.40
2022-10-05T04:11:41.667Z,1.70
2022-10-05T04:14:53.531Z,1.40
2022-10-05T04:21:40.511Z,1.60
2022-10-05T04:24:20.942Z,1.80
2022-10-05T04:27:15.429Z,1.90
2022-10-05T04:29:56.093Z,1.80
2022-10-05T04:32:45.950Z,2.00
2022-10-05T04:35:54.137Z,1.90
2022-10-05T04:38:43.664Z,2.20
2022-10-05T04:41:34.423Z,1.70
2022-10-05T04:44:24.662Z,1.80
2022-10-05T04:47:24.967Z,2.00
2022-10-05T04:50:11.219Z,1.30
2022-10-05T04:53:00.156Z,1.60
2022-10-05T04:55:52.449Z,1.80
2022-10-05T04:58:42.356Z,2.30
2022-10-05T05:01:45.790Z,2.70
2022-10-05T05:04:41.436Z,3.40
2022-10-05T05:07:32.170Z,2.50
2022-10-05T05:10:36.383Z,3.20
2022-10-05T05:13:25.130Z,2.80
2022-10-05T05:16:06.737Z,2.30
2022-10-05T05:19:09.223Z,3.40
2022-10-05T05:22:04.244Z,2.70
2022-10-05T05:25:00.467Z,3.40
2022-10-05T05:27:43.277Z,2.20
2022-10-05T05:30:41.682Z,2.40
2022-10-05T05:36:56.136Z,1.80
2022-10-05T05:40:15.928Z,2.80
2022-10-05T05:50:38.565Z,4.90
2022-10-05T06:00:34.975Z,4.30
2022-10-05T06:03:44.870Z,4.00
2022-10-05T07:08:26.882Z,3.10
2022-10-05T07:19:03.043Z,2.50
2022-10-05T08:13:30.376Z,4.80
2022-10-05T08:21:55.269Z,4.30
2022-10-05T08:28:37.153Z,4.80
2022-10-05T08:31:45.116Z,3.70
2022-10-05T08:38:38.214Z,4.30
2022-10-05T08:42:18.201Z,3.40
2022-10-05T08:54:00.642Z,3.20
2022-10-05T08:57:26.042Z,4.10
2022-10-05T09:00:46.988Z,5.40
2022-10-05T09:04:01.274Z,4.20
2022-10-05T09:13:05.437Z,3.20
2022-10-05T09:16:11.191Z,3.30
2022-10-05T09:19:11.607Z,3.50
2022-10-05T09:22:16.833Z,3.10
2022-10-05T09:25:17.333Z,3.90
2022-10-05T09:28:06.023Z,3.10
2022-10-05T09:31:00.693Z,3.30
2022-10-05T09:34:05.649Z,2.90
2022-10-05T09:37:07.230Z,2.70
2022-10-05T09:40:28.673Z,3.30
2022-10-05T09:43:18.640Z,1.70
2022-10-05T09:46:21.761Z,2.00
2022-10-05T09:49:21.679Z,2.00
2022-10-05T09:52:37.619Z,1.70
2022-10-05T09:55:32.952Z,1.60
2022-10-05T09:58:23.412Z,2.50
2022-10-05T10:01:33.247Z,1.70
2022-10-05T10:04:24.824Z,2.40
2022-10-05T10:07:38.455Z,1.90
2022-10-05T10:10:34.105Z,1.80
2022-10-05T10:13:25.930Z,2.50
2022-10-05T10:16:38.153Z,1.70
2022-10-05T10:20:08.864Z,1.90
2022-10-05T10:26:02.929Z,1.40
2022-10-05T10:28:44.833Z,2.10
2022-10-05T10:31:40.162Z,1.20
2022-10-05T10:34:37.721Z,1.40
2022-10-05T10:40:36.739Z,2.10
2022-10-05T10:47:49.813Z,1.20
2022-10-05T10:51:07.216Z,1.00
2022-10-05T10:57:22.383Z,1.50
2022-10-05T11:00:30.122Z,1.60
2022-10-05T11:03:32.469Z,1.30
2022-10-05T11:06:32.288Z,1.10
2022-10-05T11:09:30.146Z,1.20
2022-10-05T11:12:24.635Z,0.70
2022-10-05T11:15:19.640Z,1.10
2022-10-05T11:18:12.940Z,1.40
2022-10-05T11:21:13.956Z,1.50
2022-10-05T11:24:34.039Z,1.00
2022-10-05T11:27:49.750Z,1.00
2022-10-05T11:38:32.806Z,1.50
2022-10-05T11:41:51.901Z,1.70
2022-10-05T11:45:29.906Z,1.30
2022-10-05T11:51:44.075Z,0.90
2022-10-05T11:55:11.390Z,2.30
2022-10-05T11:58:21.023Z,1.00
2022-10-05T12:01:15.767Z,1.20
2022-10-05T12:03:59.647Z,1.20
2022-10-05T12:07:06.068Z,1.30
2022-10-05T12:10:09.748Z,2.10
2022-10-05T12:13:36.541Z,1.40
2022-10-05T12:16:59.663Z,1.30
2022-10-05T12:20:09.407Z,1.10
2022-10-05T12:23:18.248Z,1.20
2022-10-05T12:26:34.194Z,1.20
2022-10-05T12:29:20.356Z,1.10
2022-10-05T12:32:45.974Z,1.50
2022-10-05T12:39:42.316Z,1.20
2022-10-05T12:42:56.174Z,1.10
2022-10-05T12:45:48.955Z,1.70
2022-10-05T12:48:56.411Z,1.70
2022-10-05T12:51:49.495Z,1.00
2022-10-05T12:55:01.925Z,1.50
2022-10-05T12:58:05.503Z,1.10
2022-10-05T13:01:25.517Z,1.20
2022-10-05T13:04:32.243Z,1.40
2022-10-05T13:07:23.882Z,1.30
2022-10-05T13:10:29.600Z,1.20
2022-10-05T13:13:34.385Z,1.40
2022-10-05T13:17:34.069Z,1.00
2022-10-05T13:20:15.136Z,1.60
2022-10-05T13:23:15.509Z,1.40
2022-10-05T13:26:41.198Z,1.60
2022-10-05T13:29:43.869Z,1.10
2022-10-05T13:32:24.217Z,1.40
2022-10-05T13:35:17.232Z,1.60
2022-10-05T13:38:21.549Z,1.60
2022-10-05T13:41:14.767Z,1.40
2022-10-05T13:44:12.019Z,1.40
2022-10-05T13:47:02.254Z,1.30
2022-10-05T13:50:01.962Z,1.30
2022-10-05T13:53:28.670Z,1.20
2022-10-05T13:56:12.645Z,1.30
2022-10-05T13:59:21.759Z,1.30
2022-10-05T14:02:25.725Z,1.70
2022-10-05T14:05:01.108Z,1.40
2022-10-05T14:07:54.697Z,2.10
2022-10-05T14:10:46.725Z,1.50
2022-10-05T14:13:53.086Z,1.30
2022-10-05T14:17:32.175Z,1.40
2022-10-05T14:20:59.645Z,1.40
2022-10-05T14:27:23.697Z,1.30
2022-10-05T14:30:33.786Z,1.40
2022-10-05T14:33:45.474Z,1.40
2022-10-05T14:37:00.421Z,1.50
2022-10-05T14:40:10.569Z,1.50
2022-10-05T14:43:05.165Z,1.70
2022-10-05T14:46:13.814Z,1.90
2022-10-05T14:49:40.363Z,1.60
2022-10-05T14:52:52.619Z,2.10
2022-10-05T14:55:59.197Z,2.20
2022-10-05T14:59:16.624Z,1.90
2022-10-05T15:02:21.100Z,2.00
2022-10-05T15:09:38.168Z,2.00
2022-10-05T15:19:30.786Z,2.10
2022-10-05T15:22:43.555Z,2.00
2022-10-05T15:39:32.696Z,2.40
2022-10-05T15:42:58.448Z,1.50
2022-10-05T15:46:17.068Z,2.00
2022-10-05T15:49:22.667Z,2.30
2022-10-05T15:59:44.040Z,2.90
2022-10-05T16:03:15.367Z,5.50
2022-10-05T16:06:33.036Z,3.20
2022-10-05T16:12:49.042Z,3.20
2022-10-05T16:22:04.601Z,3.00
2022-10-05T16:29:21.620Z,4.20
2022-10-05T16:32:31.672Z,3.90
2022-10-05T16:45:46.151Z,4.00
2022-10-05T16:48:27.544Z,3.70
2022-10-05T16:51:17.526Z,3.70
2022-10-05T16:53:59.163Z,3.60
2022-10-05T16:56:37.284Z,3.50
2022-10-05T16:59:36.987Z,3.70
2022-10-05T17:02:37.426Z,4.20
2022-10-05T17:05:31.889Z,3.90
2022-10-05T17:08:38.935Z,4.40
2022-10-05T17:11:46.566Z,4.20
2022-10-05T17:14:28.863Z,5.00
2022-10-05T17:17:28.448Z,4.20
2022-10-05T17:20:29.487Z,4.70
2022-10-05T17:23:04.575Z,4.60
2022-10-05T17:25:51.114Z,5.30
2022-10-05T17:28:41.470Z,6.00
2022-10-05T17:31:21.918Z,5.40
2022-10-05T17:34:26.490Z,4.60
2022-10-05T17:37:15.596Z,4.00
2022-10-05T17:39:48.903Z,4.60
2022-10-05T17:42:51.668Z,5.00
2022-10-05T17:46:00.739Z,4.30
2022-10-05T17:48:42.168Z,4.30
2022-10-05T17:52:01.072Z,4.90
2022-10-05T17:54:51.416Z,3.60
2022-10-05T17:57:26.031Z,3.80
2022-10-05T18:00:00.487Z,4.40
2022-10-05T18:02:42.670Z,3.80
2022-10-05T18:05:22.233Z,4.80
2022-10-05T18:08:26.743Z,3.80
2022-10-05T18:11:17.045Z,3.90
2022-10-05T18:13:49.975Z,3.90
2022-10-05T18:16:53.935Z,3.40
2022-10-05T18:19:23.081Z,3.30
2022-10-05T18:22:05.897Z,3.90
2022-10-05T18:25:05.389Z,3.60
2022-10-05T18:28:10.505Z,3.70
2022-10-05T18:31:17.886Z,3.90
2022-10-05T18:34:18.646Z,3.30
2022-10-05T18:37:13.687Z,3.40
2022-10-05T18:40:23.705Z,4.00
2022-10-05T18:43:30.651Z,4.70
2022-10-05T18:46:39.815Z,5.40
2022-10-05T18:49:37.699Z,5.80
2022-10-05T18:52:50.731Z,6.20
2022-10-05T18:56:00.641Z,4.90
2022-10-05T18:59:16.666Z,24.20
2022-10-05T19:02:26.887Z,4.10
2022-10-05T19:05:47.556Z,3.50
2022-10-05T19:08:43.609Z,4.00
2022-10-05T19:11:51.677Z,4.50
2022-10-05T19:14:50.606Z,4.80
2022-10-05T19:17:44.702Z,5.30
2022-10-05T19:20:53.610Z,5.60
2022-10-05T19:23:57.671Z,6.50
2022-10-05T19:26:51.575Z,7.00
2022-10-05T19:29:45.698Z,7.60
2022-10-05T19:32:57.650Z,8.80
2022-10-05T19:35:52.675Z,7.50
2022-10-05T19:38:55.642Z,7.30
2022-10-05T19:41:52.230Z,8.00
2022-10-05T19:44:44.353Z,7.80
2022-10-05T19:47:41.300Z,6.30
2022-10-05T19:50:30.163Z,6.90
2022-10-05T19:53:21.076Z,7.20
2022-10-05T19:56:26.028Z,6.30
2022-10-05T19:58:56.588Z,6.10
2022-10-05T20:01:31.769Z,5.70
2022-10-05T20:04:01.210Z,6.10
2022-10-05T20:06:34.264Z,6.10
2022-10-05T20:09:20.058Z,6.30
2022-10-05T20:11:52.276Z,5.30
2022-10-05T20:14:30.446Z,5.20
2022-10-05T20:17:40.967Z,6.00
2022-10-05T20:20:25.100Z,4.90
2022-10-05T20:22:53.239Z,5.00
2022-10-05T20:25:41.490Z,5.80
2022-10-05T20:28:09.585Z,6.40
2022-10-05T20:30:38.784Z,6.20
2022-10-05T20:33:11.643Z,6.80
2022-10-05T20:35:39.674Z,7.50
2022-10-05T20:38:12.395Z,6.20
2022-10-05T20:40:43.136Z,4.70
2022-10-05T20:43:11.195Z,5.40
2022-10-05T20:45:43.467Z,5.70
2022-10-05T20:48:12.657Z,5.80
2022-10-05T20:50:40.855Z,5.80
2022-10-05T20:53:18.761Z,6.80
2022-10-05T20:55:47.168Z,6.00
2022-10-05T20:58:16.847Z,6.40
2022-10-05T21:01:03.637Z,6.90
2022-10-05T21:03:32.166Z,6.80
2022-10-05T21:06:00.134Z,5.80
2022-10-05T21:08:28.880Z,6.30
2022-10-05T21:10:57.153Z,6.30
2022-10-05T21:13:25.525Z,6.10
2022-10-05T21:15:53.835Z,6.20
2022-10-05T21:18:22.091Z,6.30
2022-10-05T21:20:50.557Z,6.80
2022-10-05T21:23:18.760Z,6.80
2022-10-05T21:25:48.664Z,5.40
2022-10-05T21:28:17.011Z,5.70
2022-10-05T21:30:45.014Z,5.40
2022-10-05T21:33:12.973Z,6.10
2022-10-05T21:35:48.728Z,5.40
2022-10-05T21:38:18.563Z,5.30
2022-10-05T21:40:47.949Z,5.00
2022-10-05T21:43:15.928Z,5.70
2022-10-05T21:45:45.672Z,5.80
2022-10-05T21:48:16.640Z,4.40
2022-10-05T21:50:45.760Z,5.00
2022-10-05T21:53:16.912Z,5.00
2022-10-05T21:55:48.435Z,5.20
2022-10-05T21:58:19.016Z,4.80
2022-10-05T22:00:47.628Z,4.50
2022-10-05T22:03:18.621Z,5.20
2022-10-05T22:05:46.694Z,5.00
2022-10-05T22:08:22.742Z,4.90
2022-10-05T22:10:53.066Z,5.60
2022-10-05T22:13:25.540Z,5.10
2022-10-05T22:15:57.704Z,5.30
2022-10-05T22:18:27.038Z,5.20
2022-10-05T22:20:55.889Z,5.40
2022-10-05T22:23:26.024Z,6.00
2022-10-05T22:25:54.199Z,6.20
2022-10-05T22:28:23.950Z,5.90
2022-10-05T22:30:53.312Z,4.90
2022-10-05T22:33:21.382Z,4.90
2022-10-05T22:35:49.444Z,4.60
2022-10-05T22:38:17.341Z,4.40
2022-10-05T22:40:45.397Z,4.50
2022-10-05T22:43:13.522Z,3.70
2022-10-05T22:45:42.641Z,4.60
2022-10-05T22:48:10.744Z,3.70
2022-10-05T22:50:38.813Z,4.00
2022-10-05T22:53:06.855Z,4.00
2022-10-05T22:55:35.358Z,4.30
2022-10-05T22:58:03.345Z,4.30
2022-10-05T23:00:53.366Z,4.10
2022-10-05T23:03:19.238Z,4.60
2022-10-05T23:05:47.243Z,4.80
2022-10-05T23:08:16.818Z,4.00
2022-10-05T23:10:47.168Z,4.40
2022-10-05T23:13:15.434Z,4.00
2022-10-05T23:15:44.947Z,4.60
2022-10-05T23:18:13.024Z,3.70
2022-10-05T23:20:41.058Z,4.50
2022-10-05T23:23:09.056Z,3.80
2022-10-05T23:25:40.269Z,4.00
2022-10-05T23:28:08.296Z,4.20
2022-10-05T23:30:36.381Z,4.90
2022-10-05T23:33:04.409Z,4.00
2022-10-05T23:35:32.384Z,3.40
2022-10-05T23:38:00.350Z,3.40
2022-10-05T23:40:28.409Z,3.20
2022-10-05T23:43:01.199Z,3.30
2022-10-05T23:45:29.494Z,3.10
2022-10-05T23:47:57.449Z,3.40
2022-10-05T23:50:27.249Z,2.80
2022-10-05T23:52:55.326Z,2.70
2022-10-05T23:55:23.204Z,3.60
2022-10-05T23:57:51.171Z,3.20
